sensor_id;sensor_type;location;lat;lon;timestamp;P1;durP1;ratioP1;P2;durP2;ratioP2
83487;SDS011;73424;49.994;8.184;2023-11-21T00:02:10;3.43;;;2.30;;
83487;SDS011;73424;49.994;8.184;2023-11-21T00:04:35;3.00;;;1.90;;
83487;SDS011;73424;49.994;8.184;2023-11-21T00:07:01;4.00;;;2.23;;
83487;SDS011;73424;49.994;8.184;2023-11-21T00:09:26;2.87;;;2.03;;
83487;SDS011;73424;49.994;8.184;2023-11-21T00:11:52;3.42;;;1.55;;
83487;SDS011;73424;49.994;8.184;2023-11-21T00:14:17;3.50;;;3.20;;
83487;SDS011;73424;49.994;8.184;2023-11-21T00:16:43;6.60;;;3.25;;
83487;SDS011;73424;49.994;8.184;2023-11-21T00:19:08;3.17;;;2.00;;
83487;SDS011;73424;49.994;8.184;2023-11-21T00:21:33;3.80;;;3.43;;
83487;SDS011;73424;49.994;8.184;2023-11-21T00:23:59;3.37;;;2.40;;
83487;SDS011;73424;49.994;8.184;2023-11-21T00:26:24;2.83;;;1.50;;
83487;SDS011;73424;49.994;8.184;2023-11-21T00:28:49;3.67;;;3.10;;
83487;SDS011;73424;49.994;8.184;2023-11-21T00:31:15;5.10;;;3.10;;
83487;SDS011;73424;49.994;8.184;2023-11-21T00:33:41;4.28;;;2.63;;
83487;SDS011;73424;49.994;8.184;2023-11-21T00:36:06;3.78;;;3.00;;
83487;SDS011;73424;49.994;8.184;2023-11-21T00:38:34;4.07;;;2.65;;
83487;SDS011;73424;49.994;8.184;2023-11-21T00:41:00;3.83;;;2.42;;
83487;SDS011;73424;49.994;8.184;2023-11-21T00:43:25;3.40;;;1.67;;
83487;SDS011;73424;49.994;8.184;2023-11-21T00:45:51;4.13;;;2.00;;
83487;SDS011;73424;49.994;8.184;2023-11-21T00:48:16;3.87;;;2.60;;
83487;SDS011;73424;49.994;8.184;2023-11-21T00:50:41;3.92;;;2.10;;
83487;SDS011;73424;49.994;8.184;2023-11-21T00:53:07;7.83;;;4.43;;
83487;SDS011;73424;49.994;8.184;2023-11-21T00:55:32;5.13;;;2.13;;
83487;SDS011;73424;49.994;8.184;2023-11-21T00:57:58;3.60;;;2.35;;
83487;SDS011;73424;49.994;8.184;2023-11-21T01:00:24;7.40;;;4.18;;
83487;SDS011;73424;49.994;8.184;2023-11-21T01:02:50;6.45;;;2.67;;
83487;SDS011;73424;49.994;8.184;2023-11-21T01:05:15;4.72;;;3.67;;
83487;SDS011;73424;49.994;8.184;2023-11-21T01:07:41;7.00;;;3.75;;
83487;SDS011;73424;49.994;8.184;2023-11-21T01:10:06;6.83;;;2.93;;
83487;SDS011;73424;49.994;8.184;2023-11-21T01:12:36;5.45;;;3.40;;
83487;SDS011;73424;49.994;8.184;2023-11-21T01:15:03;6.55;;;4.28;;
83487;SDS011;73424;49.994;8.184;2023-11-21T01:17:32;5.72;;;3.72;;
83487;SDS011;73424;49.994;8.184;2023-11-21T01:19:57;7.63;;;4.40;;
83487;SDS011;73424;49.994;8.184;2023-11-21T01:22:22;6.55;;;4.13;;
83487;SDS011;73424;49.994;8.184;2023-11-21T01:24:51;7.50;;;4.80;;
83487;SDS011;73424;49.994;8.184;2023-11-21T01:27:16;5.60;;;4.25;;
83487;SDS011;73424;49.994;8.184;2023-11-21T01:29:42;7.57;;;5.53;;
83487;SDS011;73424;49.994;8.184;2023-11-21T01:32:07;6.93;;;3.13;;
83487;SDS011;73424;49.994;8.184;2023-11-21T01:34:33;5.03;;;2.90;;
83487;SDS011;73424;49.994;8.184;2023-11-21T01:36:58;7.47;;;4.65;;
83487;SDS011;73424;49.994;8.184;2023-11-21T01:39:23;6.88;;;5.22;;
83487;SDS011;73424;49.994;8.184;2023-11-21T01:41:50;7.32;;;3.60;;
83487;SDS011;73424;49.994;8.184;2023-11-21T01:44:16;8.30;;;5.55;;
83487;SDS011;73424;49.994;8.184;2023-11-21T01:46:44;6.82;;;5.40;;
83487;SDS011;73424;49.994;8.184;2023-11-21T01:49:10;7.22;;;4.95;;
83487;SDS011;73424;49.994;8.184;2023-11-21T01:51:38;6.65;;;4.60;;
83487;SDS011;73424;49.994;8.184;2023-11-21T01:54:04;8.48;;;3.90;;
83487;SDS011;73424;49.994;8.184;2023-11-21T01:56:30;6.60;;;4.80;;
83487;SDS011;73424;49.994;8.184;2023-11-21T01:58:56;7.22;;;4.43;;
83487;SDS011;73424;49.994;8.184;2023-11-21T02:01:22;8.18;;;4.25;;
83487;SDS011;73424;49.994;8.184;2023-11-21T02:03:47;7.88;;;4.53;;
83487;SDS011;73424;49.994;8.184;2023-11-21T02:06:12;6.63;;;4.10;;
83487;SDS011;73424;49.994;8.184;2023-11-21T02:08:38;6.97;;;4.40;;
83487;SDS011;73424;49.994;8.184;2023-11-21T02:11:04;5.60;;;4.53;;
83487;SDS011;73424;49.994;8.184;2023-11-21T02:13:30;7.13;;;4.25;;
83487;SDS011;73424;49.994;8.184;2023-11-21T02:15:56;6.03;;;4.22;;
83487;SDS011;73424;49.994;8.184;2023-11-21T02:18:23;6.70;;;4.53;;
83487;SDS011;73424;49.994;8.184;2023-11-21T02:20:48;7.80;;;4.05;;
83487;SDS011;73424;49.994;8.184;2023-11-21T02:23:13;5.95;;;4.40;;
83487;SDS011;73424;49.994;8.184;2023-11-21T02:25:39;6.45;;;4.78;;
83487;SDS011;73424;49.994;8.184;2023-11-21T02:28:05;4.85;;;4.20;;
83487;SDS011;73424;49.994;8.184;2023-11-21T02:30:31;6.30;;;4.13;;
83487;SDS011;73424;49.994;8.184;2023-11-21T02:32:57;6.93;;;2.88;;
83487;SDS011;73424;49.994;8.184;2023-11-21T02:35:23;5.90;;;4.03;;
83487;SDS011;73424;49.994;8.184;2023-11-21T02:37:50;6.60;;;4.22;;
83487;SDS011;73424;49.994;8.184;2023-11-21T02:40:16;4.90;;;2.50;;
83487;SDS011;73424;49.994;8.184;2023-11-21T02:42:45;5.30;;;2.90;;
83487;SDS011;73424;49.994;8.184;2023-11-21T02:45:17;5.38;;;4.03;;
83487;SDS011;73424;49.994;8.184;2023-11-21T02:47:46;4.95;;;3.33;;
83487;SDS011;73424;49.994;8.184;2023-11-21T02:50:12;4.43;;;2.90;;
83487;SDS011;73424;49.994;8.184;2023-11-21T02:52:38;4.50;;;3.40;;
83487;SDS011;73424;49.994;8.184;2023-11-21T02:55:05;5.55;;;3.55;;
83487;SDS011;73424;49.994;8.184;2023-11-21T02:57:32;5.72;;;3.88;;
83487;SDS011;73424;49.994;8.184;2023-11-21T02:59:58;6.18;;;3.17;;
83487;SDS011;73424;49.994;8.184;2023-11-21T03:02:24;5.50;;;3.45;;
83487;SDS011;73424;49.994;8.184;2023-11-21T03:04:50;4.97;;;3.42;;
83487;SDS011;73424;49.994;8.184;2023-11-21T03:07:15;5.77;;;2.90;;
83487;SDS011;73424;49.994;8.184;2023-11-21T03:09:41;7.72;;;4.30;;
83487;SDS011;73424;49.994;8.184;2023-11-21T03:12:07;6.05;;;3.20;;
83487;SDS011;73424;49.994;8.184;2023-11-21T03:14:33;5.70;;;3.20;;
83487;SDS011;73424;49.994;8.184;2023-11-21T03:16:59;5.65;;;4.00;;
83487;SDS011;73424;49.994;8.184;2023-11-21T03:19:24;5.97;;;4.07;;
83487;SDS011;73424;49.994;8.184;2023-11-21T03:21:50;6.20;;;4.13;;
83487;SDS011;73424;49.994;8.184;2023-11-21T03:24:18;6.28;;;4.03;;
83487;SDS011;73424;49.994;8.184;2023-11-21T03:26:44;4.88;;;3.20;;
83487;SDS011;73424;49.994;8.184;2023-11-21T03:29:11;5.78;;;3.58;;
83487;SDS011;73424;49.994;8.184;2023-11-21T03:31:37;5.22;;;2.50;;
83487;SDS011;73424;49.994;8.184;2023-11-21T03:34:02;5.10;;;3.97;;
83487;SDS011;73424;49.994;8.184;2023-11-21T03:36:27;6.93;;;4.47;;
83487;SDS011;73424;49.994;8.184;2023-11-21T03:38:52;9.02;;;3.50;;
83487;SDS011;73424;49.994;8.184;2023-11-21T03:41:18;7.13;;;4.22;;
83487;SDS011;73424;49.994;8.184;2023-11-21T03:43:44;9.02;;;5.10;;
83487;SDS011;73424;49.994;8.184;2023-11-21T03:46:09;8.03;;;4.97;;
83487;SDS011;73424;49.994;8.184;2023-11-21T03:48:35;8.10;;;4.82;;
83487;SDS011;73424;49.994;8.184;2023-11-21T03:51:00;9.38;;;5.85;;
83487;SDS011;73424;49.994;8.184;2023-11-21T03:53:26;9.38;;;5.53;;
83487;SDS011;73424;49.994;8.184;2023-11-21T03:55:51;9.23;;;4.33;;
83487;SDS011;73424;49.994;8.184;2023-11-21T03:58:16;8.30;;;4.47;;
83487;SDS011;73424;49.994;8.184;2023-11-21T04:00:41;7.88;;;3.15;;
83487;SDS011;73424;49.994;8.184;2023-11-21T04:03:07;7.97;;;4.73;;
83487;SDS011;73424;49.994;8.184;2023-11-21T04:05:32;6.13;;;3.53;;
83487;SDS011;73424;49.994;8.184;2023-11-21T04:07:57;8.70;;;4.70;;
83487;SDS011;73424;49.994;8.184;2023-11-21T04:10:23;5.60;;;3.10;;
83487;SDS011;73424;49.994;8.184;2023-11-21T04:12:48;5.93;;;4.18;;
83487;SDS011;73424;49.994;8.184;2023-11-21T04:15:13;4.18;;;1.73;;
83487;SDS011;73424;49.994;8.184;2023-11-21T04:17:39;3.90;;;1.70;;
83487;SDS011;73424;49.994;8.184;2023-11-21T04:20:06;4.10;;;2.95;;
83487;SDS011;73424;49.994;8.184;2023-11-21T04:22:35;2.70;;;1.60;;
83487;SDS011;73424;49.994;8.184;2023-11-21T04:25:02;1.85;;;1.25;;
83487;SDS011;73424;49.994;8.184;2023-11-21T04:27:27;1.85;;;0.93;;
83487;SDS011;73424;49.994;8.184;2023-11-21T04:29:52;1.90;;;0.90;;
83487;SDS011;73424;49.994;8.184;2023-11-21T04:32:17;2.97;;;1.30;;
83487;SDS011;73424;49.994;8.184;2023-11-21T04:34:43;2.10;;;1.63;;
83487;SDS011;73424;49.994;8.184;2023-11-21T04:37:08;3.57;;;1.33;;
83487;SDS011;73424;49.994;8.184;2023-11-21T04:39:35;2.50;;;1.60;;
83487;SDS011;73424;49.994;8.184;2023-11-21T04:42:00;2.72;;;1.35;;
83487;SDS011;73424;49.994;8.184;2023-11-21T04:44:26;4.20;;;2.25;;
83487;SDS011;73424;49.994;8.184;2023-11-21T04:46:51;3.57;;;1.60;;
83487;SDS011;73424;49.994;8.184;2023-11-21T04:49:16;2.73;;;1.20;;
83487;SDS011;73424;49.994;8.184;2023-11-21T04:51:42;2.27;;;1.17;;
83487;SDS011;73424;49.994;8.184;2023-11-21T04:54:07;3.08;;;1.70;;
83487;SDS011;73424;49.994;8.184;2023-11-21T04:56:32;2.80;;;1.70;;
83487;SDS011;73424;49.994;8.184;2023-11-21T04:58:57;2.73;;;2.53;;
83487;SDS011;73424;49.994;8.184;2023-11-21T05:01:23;2.53;;;2.00;;
83487;SDS011;73424;49.994;8.184;2023-11-21T05:03:48;2.27;;;1.90;;
83487;SDS011;73424;49.994;8.184;2023-11-21T05:06:14;2.70;;;1.98;;
83487;SDS011;73424;49.994;8.184;2023-11-21T05:08:39;4.10;;;2.83;;
83487;SDS011;73424;49.994;8.184;2023-11-21T05:11:04;3.05;;;1.90;;
83487;SDS011;73424;49.994;8.184;2023-11-21T05:13:32;4.50;;;1.85;;
83487;SDS011;73424;49.994;8.184;2023-11-21T05:15:58;2.60;;;1.30;;
83487;SDS011;73424;49.994;8.184;2023-11-21T05:18:24;2.67;;;1.57;;
83487;SDS011;73424;49.994;8.184;2023-11-21T05:20:52;3.33;;;2.10;;
83487;SDS011;73424;49.994;8.184;2023-11-21T05:23:18;4.95;;;2.03;;
83487;SDS011;73424;49.994;8.184;2023-11-21T05:25:44;3.63;;;1.75;;
83487;SDS011;73424;49.994;8.184;2023-11-21T05:28:09;3.33;;;2.00;;
83487;SDS011;73424;49.994;8.184;2023-11-21T05:30:34;4.20;;;2.93;;
83487;SDS011;73424;49.994;8.184;2023-11-21T05:32:59;4.67;;;2.33;;
83487;SDS011;73424;49.994;8.184;2023-11-21T05:35:25;4.40;;;2.60;;
83487;SDS011;73424;49.994;8.184;2023-11-21T05:37:51;3.72;;;3.03;;
83487;SDS011;73424;49.994;8.184;2023-11-21T05:40:16;4.00;;;1.90;;
83487;SDS011;73424;49.994;8.184;2023-11-21T05:42:42;5.55;;;3.70;;
83487;SDS011;73424;49.994;8.184;2023-11-21T05:45:08;3.70;;;2.33;;
83487;SDS011;73424;49.994;8.184;2023-11-21T05:47:39;5.57;;;3.55;;
83487;SDS011;73424;49.994;8.184;2023-11-21T05:50:09;4.43;;;3.03;;
83487;SDS011;73424;49.994;8.184;2023-11-21T05:52:36;4.68;;;2.38;;
83487;SDS011;73424;49.994;8.184;2023-11-21T05:55:03;5.07;;;3.35;;
83487;SDS011;73424;49.994;8.184;2023-11-21T05:57:32;5.53;;;3.20;;
83487;SDS011;73424;49.994;8.184;2023-11-21T05:59:57;4.95;;;2.67;;
83487;SDS011;73424;49.994;8.184;2023-11-21T06:02:23;5.20;;;3.83;;
83487;SDS011;73424;49.994;8.184;2023-11-21T06:04:48;4.75;;;3.67;;
83487;SDS011;73424;49.994;8.184;2023-11-21T06:07:13;4.13;;;3.67;;
83487;SDS011;73424;49.994;8.184;2023-11-21T06:09:39;5.05;;;3.50;;
83487;SDS011;73424;49.994;8.184;2023-11-21T06:12:05;3.73;;;3.13;;
83487;SDS011;73424;49.994;8.184;2023-11-21T06:14:30;5.82;;;3.53;;
83487;SDS011;73424;49.994;8.184;2023-11-21T06:16:58;6.80;;;4.07;;
83487;SDS011;73424;49.994;8.184;2023-11-21T06:19:23;4.67;;;3.70;;
83487;SDS011;73424;49.994;8.184;2023-11-21T06:21:48;4.73;;;3.53;;
83487;SDS011;73424;49.994;8.184;2023-11-21T06:24:14;5.83;;;3.30;;
83487;SDS011;73424;49.994;8.184;2023-11-21T06:26:40;4.93;;;3.22;;
83487;SDS011;73424;49.994;8.184;2023-11-21T06:29:06;5.57;;;3.30;;
83487;SDS011;73424;49.994;8.184;2023-11-21T06:31:32;6.63;;;3.85;;
83487;SDS011;73424;49.994;8.184;2023-11-21T06:33:57;4.07;;;2.80;;
83487;SDS011;73424;49.994;8.184;2023-11-21T06:36:24;5.25;;;3.20;;
83487;SDS011;73424;49.994;8.184;2023-11-21T06:38:51;6.07;;;3.78;;
83487;SDS011;73424;49.994;8.184;2023-11-21T06:41:16;6.50;;;2.83;;
83487;SDS011;73424;49.994;8.184;2023-11-21T06:43:42;4.70;;;2.25;;
83487;SDS011;73424;49.994;8.184;2023-11-21T06:46:11;5.97;;;2.92;;
83487;SDS011;73424;49.994;8.184;2023-11-21T06:48:39;3.75;;;1.80;;
83487;SDS011;73424;49.994;8.184;2023-11-21T06:51:05;4.47;;;2.75;;
83487;SDS011;73424;49.994;8.184;2023-11-21T06:53:32;3.65;;;2.13;;
83487;SDS011;73424;49.994;8.184;2023-11-21T06:55:57;3.42;;;2.90;;
83487;SDS011;73424;49.994;8.184;2023-11-21T06:58:22;3.70;;;2.57;;
83487;SDS011;73424;49.994;8.184;2023-11-21T07:00:47;3.20;;;2.00;;
83487;SDS011;73424;49.994;8.184;2023-11-21T07:03:15;3.63;;;3.00;;
83487;SDS011;73424;49.994;8.184;2023-11-21T07:05:40;4.07;;;2.47;;
83487;SDS011;73424;49.994;8.184;2023-11-21T07:08:05;3.67;;;2.22;;
83487;SDS011;73424;49.994;8.184;2023-11-21T07:10:32;5.22;;;4.15;;
83487;SDS011;73424;49.994;8.184;2023-11-21T07:12:57;4.20;;;3.15;;
83487;SDS011;73424;49.994;8.184;2023-11-21T07:15:23;5.70;;;3.30;;
83487;SDS011;73424;49.994;8.184;2023-11-21T07:17:50;4.32;;;2.92;;
83487;SDS011;73424;49.994;8.184;2023-11-21T07:20:16;4.22;;;2.95;;
83487;SDS011;73424;49.994;8.184;2023-11-21T07:22:42;3.58;;;3.10;;
83487;SDS011;73424;49.994;8.184;2023-11-21T07:25:07;6.45;;;4.00;;
83487;SDS011;73424;49.994;8.184;2023-11-21T07:27:34;4.78;;;2.95;;
83487;SDS011;73424;49.994;8.184;2023-11-21T07:30:01;4.50;;;3.53;;
83487;SDS011;73424;49.994;8.184;2023-11-21T07:32:29;4.05;;;3.65;;
83487;SDS011;73424;49.994;8.184;2023-11-21T07:34:55;4.88;;;3.35;;
83487;SDS011;73424;49.994;8.184;2023-11-21T07:37:22;5.32;;;4.22;;
83487;SDS011;73424;49.994;8.184;2023-11-21T07:39:47;4.60;;;3.75;;
83487;SDS011;73424;49.994;8.184;2023-11-21T07:42:13;4.60;;;2.72;;
83487;SDS011;73424;49.994;8.184;2023-11-21T07:44:38;5.05;;;3.88;;
83487;SDS011;73424;49.994;8.184;2023-11-21T07:47:04;3.33;;;2.80;;
83487;SDS011;73424;49.994;8.184;2023-11-21T07:49:29;3.58;;;3.17;;
83487;SDS011;73424;49.994;8.184;2023-11-21T07:51:55;3.15;;;2.85;;
83487;SDS011;73424;49.994;8.184;2023-11-21T07:54:21;4.23;;;3.23;;
83487;SDS011;73424;49.994;8.184;2023-11-21T07:56:46;3.28;;;2.95;;
83487;SDS011;73424;49.994;8.184;2023-11-21T07:59:12;4.82;;;3.35;;
83487;SDS011;73424;49.994;8.184;2023-11-21T08:01:37;3.72;;;3.03;;
83487;SDS011;73424;49.994;8.184;2023-11-21T08:04:05;3.60;;;2.15;;
83487;SDS011;73424;49.994;8.184;2023-11-21T08:06:31;3.50;;;2.38;;
83487;SDS011;73424;49.994;8.184;2023-11-21T08:08:57;4.03;;;1.88;;
83487;SDS011;73424;49.994;8.184;2023-11-21T08:11:23;3.65;;;2.17;;
83487;SDS011;73424;49.994;8.184;2023-11-21T08:13:49;4.05;;;2.88;;
83487;SDS011;73424;49.994;8.184;2023-11-21T08:16:14;3.42;;;3.05;;
83487;SDS011;73424;49.994;8.184;2023-11-21T08:18:39;3.05;;;2.35;;
83487;SDS011;73424;49.994;8.184;2023-11-21T08:21:06;5.13;;;3.65;;
83487;SDS011;73424;49.994;8.184;2023-11-21T08:23:31;3.63;;;2.75;;
83487;SDS011;73424;49.994;8.184;2023-11-21T08:25:57;3.70;;;2.20;;
83487;SDS011;73424;49.994;8.184;2023-11-21T08:28:22;4.57;;;2.97;;
83487;SDS011;73424;49.994;8.184;2023-11-21T08:30:50;4.82;;;2.15;;
83487;SDS011;73424;49.994;8.184;2023-11-21T08:33:16;6.03;;;4.03;;
83487;SDS011;73424;49.994;8.184;2023-11-21T08:35:41;5.05;;;2.28;;
83487;SDS011;73424;49.994;8.184;2023-11-21T08:38:07;5.40;;;2.33;;
83487;SDS011;73424;49.994;8.184;2023-11-21T08:40:32;5.28;;;2.85;;
83487;SDS011;73424;49.994;8.184;2023-11-21T08:42:58;4.40;;;1.85;;
83487;SDS011;73424;49.994;8.184;2023-11-21T08:45:26;7.13;;;3.30;;
83487;SDS011;73424;49.994;8.184;2023-11-21T08:47:51;3.95;;;2.90;;
83487;SDS011;73424;49.994;8.184;2023-11-21T08:50:17;5.72;;;1.88;;
83487;SDS011;73424;49.994;8.184;2023-11-21T08:52:43;5.57;;;2.75;;
83487;SDS011;73424;49.994;8.184;2023-11-21T08:55:09;5.68;;;3.03;;
83487;SDS011;73424;49.994;8.184;2023-11-21T08:57:37;4.25;;;2.60;;
83487;SDS011;73424;49.994;8.184;2023-11-21T09:00:04;4.05;;;2.58;;
83487;SDS011;73424;49.994;8.184;2023-11-21T09:02:36;4.47;;;2.00;;
83487;SDS011;73424;49.994;8.184;2023-11-21T09:05:02;5.20;;;2.50;;
83487;SDS011;73424;49.994;8.184;2023-11-21T09:07:28;4.63;;;2.33;;
83487;SDS011;73424;49.994;8.184;2023-11-21T09:09:54;5.70;;;3.28;;
83487;SDS011;73424;49.994;8.184;2023-11-21T09:12:20;6.22;;;1.98;;
83487;SDS011;73424;49.994;8.184;2023-11-21T09:14:46;5.85;;;2.85;;
83487;SDS011;73424;49.994;8.184;2023-11-21T09:17:12;4.03;;;1.50;;
83487;SDS011;73424;49.994;8.184;2023-11-21T09:19:39;4.90;;;3.08;;
83487;SDS011;73424;49.994;8.184;2023-11-21T09:22:05;5.28;;;2.67;;
83487;SDS011;73424;49.994;8.184;2023-11-21T09:24:31;5.10;;;1.70;;
83487;SDS011;73424;49.994;8.184;2023-11-21T09:26:59;3.53;;;1.75;;
83487;SDS011;73424;49.994;8.184;2023-11-21T09:29:28;3.83;;;1.73;;
83487;SDS011;73424;49.994;8.184;2023-11-21T09:31:54;3.72;;;2.05;;
83487;SDS011;73424;49.994;8.184;2023-11-21T09:34:20;3.75;;;1.75;;
83487;SDS011;73424;49.994;8.184;2023-11-21T09:36:45;3.88;;;3.45;;
83487;SDS011;73424;49.994;8.184;2023-11-21T09:39:11;4.75;;;2.60;;
83487;SDS011;73424;49.994;8.184;2023-11-21T09:42:22;3.80;;;1.67;;
83487;SDS011;73424;49.994;8.184;2023-11-21T09:44:40;3.97;;;1.88;;
83487;SDS011;73424;49.994;8.184;2023-11-21T09:47:10;3.70;;;3.22;;
83487;SDS011;73424;49.994;8.184;2023-11-21T09:49:41;3.85;;;2.60;;
83487;SDS011;73424;49.994;8.184;2023-11-21T09:52:11;3.92;;;3.10;;
83487;SDS011;73424;49.994;8.184;2023-11-21T09:54:59;4.22;;;1.85;;
83487;SDS011;73424;49.994;8.184;2023-11-21T09:57:27;4.90;;;2.67;;
83487;SDS011;73424;49.994;8.184;2023-11-21T09:59:54;3.13;;;2.25;;
83487;SDS011;73424;49.994;8.184;2023-11-21T10:02:24;6.53;;;2.92;;
83487;SDS011;73424;49.994;8.184;2023-11-21T10:04:53;4.38;;;2.20;;
83487;SDS011;73424;49.994;8.184;2023-11-21T10:07:20;5.93;;;4.75;;
83487;SDS011;73424;49.994;8.184;2023-11-21T10:09:46;4.65;;;3.55;;
83487;SDS011;73424;49.994;8.184;2023-11-21T10:12:13;5.22;;;2.53;;
83487;SDS011;73424;49.994;8.184;2023-11-21T10:14:40;5.13;;;3.28;;
83487;SDS011;73424;49.994;8.184;2023-11-21T10:17:06;4.82;;;1.98;;
83487;SDS011;73424;49.994;8.184;2023-11-21T10:19:33;5.53;;;3.15;;
83487;SDS011;73424;49.994;8.184;2023-11-21T10:22:01;4.88;;;2.58;;
83487;SDS011;73424;49.994;8.184;2023-11-21T10:24:27;5.43;;;3.15;;
83487;SDS011;73424;49.994;8.184;2023-11-21T10:26:52;3.70;;;3.20;;
83487;SDS011;73424;49.994;8.184;2023-11-21T10:29:18;4.82;;;3.20;;
83487;SDS011;73424;49.994;8.184;2023-11-21T10:31:48;6.88;;;3.45;;
83487;SDS011;73424;49.994;8.184;2023-11-21T10:34:15;5.68;;;2.95;;
83487;SDS011;73424;49.994;8.184;2023-11-21T10:36:41;5.72;;;2.10;;
83487;SDS011;73424;49.994;8.184;2023-11-21T10:39:07;5.90;;;3.42;;
83487;SDS011;73424;49.994;8.184;2023-11-21T10:41:33;5.63;;;4.47;;
83487;SDS011;73424;49.994;8.184;2023-11-21T10:44:00;4.38;;;2.85;;
83487;SDS011;73424;49.994;8.184;2023-11-21T10:46:25;5.10;;;1.80;;
83487;SDS011;73424;49.994;8.184;2023-11-21T10:48:52;5.32;;;2.20;;
83487;SDS011;73424;49.994;8.184;2023-11-21T10:51:21;5.57;;;2.92;;
83487;SDS011;73424;49.994;8.184;2023-11-21T10:53:49;5.45;;;2.00;;
83487;SDS011;73424;49.994;8.184;2023-11-21T10:56:15;4.20;;;3.60;;
83487;SDS011;73424;49.994;8.184;2023-11-21T10:58:44;6.15;;;1.70;;
83487;SDS011;73424;49.994;8.184;2023-11-21T11:01:10;6.72;;;3.10;;
83487;SDS011;73424;49.994;8.184;2023-11-21T11:03:37;4.68;;;1.73;;
83487;SDS011;73424;49.994;8.184;2023-11-21T11:06:04;3.55;;;2.95;;
83487;SDS011;73424;49.994;8.184;2023-11-21T11:08:32;2.63;;;1.60;;
83487;SDS011;73424;49.994;8.184;2023-11-21T11:10:59;4.68;;;2.35;;
83487;SDS011;73424;49.994;8.184;2023-11-21T11:13:24;6.80;;;2.72;;
83487;SDS011;73424;49.994;8.184;2023-11-21T11:15:50;4.88;;;2.10;;
83487;SDS011;73424;49.994;8.184;2023-11-21T11:18:16;7.38;;;1.90;;
83487;SDS011;73424;49.994;8.184;2023-11-21T11:20:42;10.32;;;2.03;;
83487;SDS011;73424;49.994;8.184;2023-11-21T11:23:17;3.83;;;2.25;;
83487;SDS011;73424;49.994;8.184;2023-11-21T11:28:29;4.43;;;2.35;;
83487;SDS011;73424;49.994;8.184;2023-11-21T11:33:40;4.63;;;3.78;;
83487;SDS011;73424;49.994;8.184;2023-11-21T11:38:50;6.95;;;2.33;;
83487;SDS011;73424;49.994;8.184;2023-11-21T11:41:26;3.47;;;1.42;;
83487;SDS011;73424;49.994;8.184;2023-11-21T11:43:52;4.90;;;2.63;;
83487;SDS011;73424;49.994;8.184;2023-11-21T11:46:18;3.70;;;2.30;;
83487;SDS011;73424;49.994;8.184;2023-11-21T11:48:46;3.75;;;1.50;;
83487;SDS011;73424;49.994;8.184;2023-11-21T11:51:14;4.40;;;2.67;;
83487;SDS011;73424;49.994;8.184;2023-11-21T11:53:42;3.45;;;1.80;;
83487;SDS011;73424;49.994;8.184;2023-11-21T11:56:23;5.88;;;2.85;;
83487;SDS011;73424;49.994;8.184;2023-11-21T11:58:50;4.97;;;1.50;;
83487;SDS011;73424;49.994;8.184;2023-11-21T12:01:18;4.18;;;2.33;;
83487;SDS011;73424;49.994;8.184;2023-11-21T12:03:44;4.85;;;2.67;;
83487;SDS011;73424;49.994;8.184;2023-11-21T12:06:33;4.55;;;2.92;;
83487;SDS011;73424;49.994;8.184;2023-11-21T12:09:01;3.55;;;1.80;;
83487;SDS011;73424;49.994;8.184;2023-11-21T12:11:30;5.10;;;3.30;;
83487;SDS011;73424;49.994;8.184;2023-11-21T12:13:57;6.95;;;2.25;;
83487;SDS011;73424;49.994;8.184;2023-11-21T12:16:23;5.60;;;5.10;;
83487;SDS011;73424;49.994;8.184;2023-11-21T12:18:52;3.33;;;1.30;;
83487;SDS011;73424;49.994;8.184;2023-11-21T12:21:18;4.10;;;2.85;;
83487;SDS011;73424;49.994;8.184;2023-11-21T12:23:44;3.63;;;1.73;;
83487;SDS011;73424;49.994;8.184;2023-11-21T12:26:11;2.33;;;1.48;;
83487;SDS011;73424;49.994;8.184;2023-11-21T12:28:37;4.05;;;3.03;;
83487;SDS011;73424;49.994;8.184;2023-11-21T12:31:03;4.63;;;2.63;;
83487;SDS011;73424;49.994;8.184;2023-11-21T12:33:29;6.20;;;2.67;;
83487;SDS011;73424;49.994;8.184;2023-11-21T12:35:55;4.78;;;2.88;;
83487;SDS011;73424;49.994;8.184;2023-11-21T12:38:22;4.57;;;3.22;;
83487;SDS011;73424;49.994;8.184;2023-11-21T12:40:49;4.20;;;3.63;;
83487;SDS011;73424;49.994;8.184;2023-11-21T12:43:15;4.95;;;2.88;;
83487;SDS011;73424;49.994;8.184;2023-11-21T12:45:43;4.63;;;1.98;;
83487;SDS011;73424;49.994;8.184;2023-11-21T12:48:08;3.65;;;3.15;;
83487;SDS011;73424;49.994;8.184;2023-11-21T12:50:36;4.80;;;3.08;;
83487;SDS011;73424;49.994;8.184;2023-11-21T12:53:06;4.70;;;1.73;;
83487;SDS011;73424;49.994;8.184;2023-11-21T12:55:35;3.40;;;1.80;;
83487;SDS011;73424;49.994;8.184;2023-11-21T12:58:02;4.55;;;2.10;;
83487;SDS011;73424;49.994;8.184;2023-11-21T13:00:34;5.78;;;3.47;;
83487;SDS011;73424;49.994;8.184;2023-11-21T13:03:02;5.10;;;2.22;;
83487;SDS011;73424;49.994;8.184;2023-11-21T13:05:35;5.32;;;1.98;;
83487;SDS011;73424;49.994;8.184;2023-11-21T13:08:05;5.18;;;3.58;;
83487;SDS011;73424;49.994;8.184;2023-11-21T13:10:36;4.75;;;3.25;;
83487;SDS011;73424;49.994;8.184;2023-11-21T13:13:04;7.20;;;3.72;;
83487;SDS011;73424;49.994;8.184;2023-11-21T13:15:33;5.75;;;3.47;;
83487;SDS011;73424;49.994;8.184;2023-11-21T13:18:00;4.82;;;2.88;;
83487;SDS011;73424;49.994;8.184;2023-11-21T13:20:25;5.70;;;4.00;;
83487;SDS011;73424;49.994;8.184;2023-11-21T13:22:53;5.10;;;4.17;;
83487;SDS011;73424;49.994;8.184;2023-11-21T13:25:22;5.80;;;3.67;;
83487;SDS011;73424;49.994;8.184;2023-11-21T13:27:48;5.30;;;3.72;;
83487;SDS011;73424;49.994;8.184;2023-11-21T13:30:14;7.03;;;3.92;;
83487;SDS011;73424;49.994;8.184;2023-11-21T13:32:41;5.97;;;4.25;;
83487;SDS011;73424;49.994;8.184;2023-11-21T13:35:07;7.07;;;4.35;;
83487;SDS011;73424;49.994;8.184;2023-11-21T13:37:37;4.82;;;3.45;;
83487;SDS011;73424;49.994;8.184;2023-11-21T13:40:03;5.03;;;3.55;;
83487;SDS011;73424;49.994;8.184;2023-11-21T13:42:39;5.78;;;2.97;;
83487;SDS011;73424;49.994;8.184;2023-11-21T13:45:06;7.90;;;4.28;;
83487;SDS011;73424;49.994;8.184;2023-11-21T13:47:31;7.05;;;2.75;;
83487;SDS011;73424;49.994;8.184;2023-11-21T13:49:58;9.80;;;4.82;;
83487;SDS011;73424;49.994;8.184;2023-11-21T13:52:25;5.00;;;3.35;;
83487;SDS011;73424;49.994;8.184;2023-11-21T13:54:52;6.57;;;2.80;;
83487;SDS011;73424;49.994;8.184;2023-11-21T13:57:18;7.40;;;3.70;;
83487;SDS011;73424;49.994;8.184;2023-11-21T13:59:45;5.38;;;4.13;;
83487;SDS011;73424;49.994;8.184;2023-11-21T14:02:10;5.72;;;3.85;;
83487;SDS011;73424;49.994;8.184;2023-11-21T14:04:53;6.35;;;4.13;;
83487;SDS011;73424;49.994;8.184;2023-11-21T14:07:20;6.47;;;2.60;;
83487;SDS011;73424;49.994;8.184;2023-11-21T14:10:01;4.90;;;3.28;;
83487;SDS011;73424;49.994;8.184;2023-11-21T14:12:27;6.53;;;3.42;;
83487;SDS011;73424;49.994;8.184;2023-11-21T14:14:53;4.90;;;3.70;;
83487;SDS011;73424;49.994;8.184;2023-11-21T14:17:20;7.95;;;3.47;;
83487;SDS011;73424;49.994;8.184;2023-11-21T14:19:47;7.15;;;2.97;;
83487;SDS011;73424;49.994;8.184;2023-11-21T14:22:14;5.88;;;4.05;;
83487;SDS011;73424;49.994;8.184;2023-11-21T14:24:39;6.57;;;2.90;;
83487;SDS011;73424;49.994;8.184;2023-11-21T14:27:12;5.97;;;2.75;;
83487;SDS011;73424;49.994;8.184;2023-11-21T14:29:38;7.82;;;3.70;;
83487;SDS011;73424;49.994;8.184;2023-11-21T14:32:07;4.40;;;2.90;;
83487;SDS011;73424;49.994;8.184;2023-11-21T14:34:32;7.80;;;2.83;;
83487;SDS011;73424;49.994;8.184;2023-11-21T14:36:58;5.73;;;4.00;;
83487;SDS011;73424;49.994;8.184;2023-11-21T14:39:23;5.40;;;4.20;;
83487;SDS011;73424;49.994;8.184;2023-11-21T14:41:51;5.88;;;3.85;;
83487;SDS011;73424;49.994;8.184;2023-11-21T14:44:18;6.88;;;3.90;;
83487;SDS011;73424;49.994;8.184;2023-11-21T14:46:43;6.88;;;4.97;;
83487;SDS011;73424;49.994;8.184;2023-11-21T14:49:14;5.30;;;4.80;;
83487;SDS011;73424;49.994;8.184;2023-11-21T14:51:52;5.80;;;4.82;;
83487;SDS011;73424;49.994;8.184;2023-11-21T14:54:28;10.60;;;5.72;;